首页
METAR-TAF:

METAR-TAF

机场 :

馬斯科吉, 奧克拉荷馬州, 美国

纬度: 35-39-25N, 经度: 095-21-35W, 海拔: 185米

当前天气观测

该预报发布于22分钟前的02:09 UTC
风速9节,风向东南
温度 1°C
湿度 100%
气压 1016 hPa
能見度: 14.5公里
阴天层高于500英尺

METAR: KMKO 230209Z AUTO 14009KT 9SM OVC005 01/01 A3001 RMK AO2 T00110006

时间: 20:31 (02:31 UTC)


TAF: 丢失

超过4000个机场的气象观测和天气预报(METAR&TAF报告)。

可查询的气象台以黄色和红色小点在地图上表示。

将鼠标移到小点上方,可查看气象台名称。

然后点击查看天气观测和预报。

如需切换地图:点击带黑十字的绿色按钮放大地图;点击带横线的绿色按钮缩小地图;或者点击绿色箭头查看邻近地区的地图。


METAR-TAF: